Time;durP1;ratioP1;P1;durP2;ratioP2;P2;SDS_P1;SDS_P2;PMS_P1;PMS_P2;Temp;Humidity;BMP_temperature;BMP_pressure;BME280_temperature;BME280_humidity;BME280_pressure;Samples;Min_cycle;Max_cycle;Signal;HPM_P1;HPM_P2
2022/11/04 00:02:08;;;;;;;11.07;9.90;;;13.40;99.90;;;;;;4972992;28;99332;-76
2022/11/04 00:04:35;;;;;;;10.98;9.90;;;13.40;99.90;;;;;;4990055;28;98678;-76
2022/11/04 00:08:22;;;;;;;12.43;9.75;;;13.40;99.90;;;;;;4989807;28;98564;-76
2022/11/04 00:09:49;;;;;;;10.00;8.95;;;13.40;99.90;;;;;;4986743;28;99450;-76
2022/11/04 00:12:24;;;;;;;10.32;9.32;;;13.40;99.90;;;;;;4974464;28;99086;-76
2022/11/04 00:14:52;;;;;;;10.98;9.70;;;13.40;99.90;;;;;;4974828;28;98894;-77
2022/11/04 00:17:20;;;;;;;10.23;9.18;;;13.40;99.90;;;;;;4990003;28;98594;-76
2022/11/04 00:33:54;;;;;;;7.60;6.82;;;13.20;99.90;;;;;;4974120;28;99317;-76
2022/11/04 00:36:22;;;;;;;6.63;5.88;;;13.20;99.90;;;;;;4989669;28;98569;-76
2022/11/04 00:38:50;;;;;;;5.93;5.43;;;13.30;99.90;;;;;;4974120;28;98573;-76
2022/11/04 00:41:25;;;;;;;6.40;5.80;;;13.30;99.90;;;;;;4990616;28;102201;-79
2022/11/04 00:44:01;;;;;;;5.40;5.00;;;13.30;99.90;;;;;;4993838;28;99072;-76
2022/11/04 00:46:30;;;;;;;5.57;5.07;;;13.30;99.90;;;;;;5009823;28;98419;-76
2022/11/04 00:48:57;;;;;;;5.63;5.13;;;13.30;99.90;;;;;;5009017;28;98973;-76
2022/11/04 00:51:25;;;;;;;5.25;4.70;;;13.30;99.90;;;;;;4993600;28;99350;-76
2022/11/04 00:53:52;;;;;;;6.10;5.50;;;13.30;99.90;;;;;;4992432;28;112845;-76
2022/11/04 00:56:19;;;;;;;6.10;5.57;;;13.30;99.90;;;;;;4994003;28;98416;-76
2022/11/04 00:58:48;;;;;;;5.20;4.53;;;13.30;99.90;;;;;;5008943;28;98721;-76
2022/11/04 01:01:16;;;;;;;4.95;4.38;;;13.30;99.90;;;;;;4993535;28;99373;-76
2022/11/04 01:03:45;;;;;;;5.03;4.53;;;13.30;99.90;;;;;;5008703;28;101735;-76
2022/11/04 01:06:11;;;;;;;3.83;3.45;;;13.20;99.90;;;;;;5008979;28;98550;-76
2022/11/04 01:08:39;;;;;;;3.40;3.10;;;13.20;99.90;;;;;;4993752;28;98503;-76
2022/11/04 01:11:08;;;;;;;2.63;2.50;;;13.20;99.90;;;;;;5008207;28;116900;-76
2022/11/04 01:13:35;;;;;;;2.70;2.50;;;13.10;99.90;;;;;;4992272;28;98984;-76
2022/11/04 01:16:05;;;;;;;3.45;2.63;;;13.10;99.90;;;;;;5008890;28;98761;-76
2022/11/04 01:18:32;;;;;;;2.78;2.55;;;13.10;99.90;;;;;;4991842;28;99236;-76
2022/11/04 01:21:03;;;;;;;2.58;2.38;;;13.00;99.90;;;;;;4992994;28;99353;-76
2022/11/04 01:23:30;;;;;;;2.33;2.13;;;13.00;99.90;;;;;;5008419;28;101532;-76
2022/11/04 01:25:57;;;;;;;2.58;2.10;;;13.00;99.90;;;;;;4993372;28;98414;-76
2022/11/04 01:28:24;;;;;;;3.20;2.90;;;13.00;99.90;;;;;;5008741;28;98986;-76
2022/11/04 01:30:51;;;;;;;2.58;2.38;;;12.90;99.90;;;;;;4992784;28;99427;-76
2022/11/04 01:33:18;;;;;;;3.65;2.20;;;12.90;99.90;;;;;;5008095;28;99046;-76
2022/11/04 01:35:45;;;;;;;2.22;1.80;;;12.90;99.90;;;;;;4993194;28;105303;-76
2022/11/04 01:38:12;;;;;;;1.40;1.30;;;12.80;99.90;;;;;;4993287;28;98965;-77
2022/11/04 01:40:40;;;;;;;1.35;1.13;;;12.80;99.90;;;;;;5008332;28;99210;-76
2022/11/04 01:43:19;;;;;;;1.20;1.10;;;12.80;99.90;;;;;;4992161;28;99298;-76
2022/11/04 01:45:51;;;;;;;2.65;0.90;;;12.80;99.90;;;;;;5008628;28;98606;-75
2022/11/04 01:48:28;;;;;;;0.90;0.90;;;12.70;99.90;;;;;;5008446;28;98594;-76
2022/11/04 01:50:55;;;;;;;0.98;0.82;;;12.70;99.90;;;;;;4992682;28;99399;-76
2022/11/04 01:53:31;;;;;;;1.05;0.90;;;12.60;99.90;;;;;;5008146;28;101605;-76
2022/11/04 01:56:01;;;;;;;2.85;0.90;;;12.60;99.90;;;;;;5008428;28;98637;-76
2022/11/04 01:58:34;;;;;;;1.67;0.85;;;12.60;99.90;;;;;;5008365;28;98684;-76
2022/11/04 02:01:01;;;;;;;0.70;0.70;;;12.60;99.90;;;;;;5008081;28;101098;-76
2022/11/04 02:03:34;;;;;;;1.48;0.55;;;12.50;99.90;;;;;;5007939;28;98585;-76
2022/11/04 02:06:02;;;;;;;2.08;0.85;;;12.50;99.90;;;;;;4993139;28;99008;-76
2022/11/04 02:08:29;;;;;;;0.75;0.60;;;12.50;99.90;;;;;;4992615;28;99246;-76
2022/11/04 02:11:01;;;;;;;2.72;0.98;;;12.50;99.90;;;;;;5007369;28;101865;-76
2022/11/04 02:13:31;;;;;;;0.73;0.60;;;12.40;99.90;;;;;;4992785;28;99102;-76
2022/11/04 02:16:23;;;;;;;1.50;0.73;;;12.40;99.90;;;;;;5007877;28;98602;-77
2022/11/04 02:18:57;;;;;;;1.10;0.80;;;12.40;99.90;;;;;;5008008;28;98676;-76
2022/11/04 02:21:27;;;;;;;1.30;0.93;;;12.40;99.90;;;;;;4992284;28;99409;-76
2022/11/04 02:24:03;;;;;;;2.97;0.90;;;12.30;99.90;;;;;;4991808;28;98920;-77
2022/11/04 02:26:55;;;;;;;1.33;0.90;;;12.40;99.90;;;;;;5008265;28;97828;-76
2022/11/04 02:29:41;;;;;;;2.20;0.98;;;12.40;99.90;;;;;;4992746;28;98441;-76
2022/11/04 02:32:30;;;;;;;5.55;1.30;;;12.40;99.90;;;;;;5007291;28;101630;-76
2022/11/04 02:35:15;;;;;;;2.10;1.00;;;12.40;99.90;;;;;;5007061;28;101787;-76
2022/11/04 02:37:50;;;;;;;1.60;1.05;;;12.50;99.90;;;;;;4992832;28;98550;-76
2022/11/04 02:40:31;;;;;;;2.60;1.00;;;12.50;99.90;;;;;;4992431;28;98502;-76
2022/11/04 02:42:58;;;;;;;1.38;1.00;;;12.50;99.90;;;;;;5007059;28;102017;-76
2022/11/04 02:45:25;;;;;;;1.52;1.20;;;12.50;99.90;;;;;;5007563;28;100072;-76
2022/11/04 02:48:31;;;;;;;2.58;1.30;;;12.50;99.90;;;;;;5007582;28;98676;-76
2022/11/04 02:51:01;;;;;;;3.13;1.20;;;12.60;99.90;;;;;;4988604;28;98605;-76
2022/11/04 02:53:46;;;;;;;0.85;0.70;;;12.50;99.90;;;;;;5007566;28;98615;-76
2022/11/04 02:56:16;;;;;;;1.08;0.60;;;12.60;99.90;;;;;;5007206;28;99047;-76
2022/11/04 02:58:57;;;;;;;1.67;0.80;;;12.50;99.90;;;;;;5007377;28;98597;-76
2022/11/04 03:01:29;;;;;;;1.13;0.68;;;12.50;99.90;;;;;;5007103;28;99307;-76
2022/11/04 03:04:09;;;;;;;0.70;0.70;;;12.50;99.90;;;;;;5007204;28;101899;-76
2022/11/04 03:06:37;;;;;;;3.13;1.00;;;12.60;99.90;;;;;;5007158;28;101438;-76
2022/11/04 03:09:07;;;;;;;2.53;0.98;;;12.50;99.90;;;;;;4990703;28;98572;-76
2022/11/04 03:11:34;;;;;;;1.83;0.80;;;12.50;99.90;;;;;;4992186;28;98515;-76
2022/11/04 03:14:10;;;;;;;2.25;0.70;;;12.50;99.90;;;;;;4990658;28;99429;-77
2022/11/04 03:16:49;;;;;;;0.70;0.60;;;12.50;99.90;;;;;;5006986;28;101725;-76
2022/11/04 03:19:15;;;;;;;1.20;0.68;;;12.50;99.90;;;;;;5007526;28;97783;-76
2022/11/04 03:21:51;;;;;;;3.17;1.13;;;12.50;99.90;;;;;;4991959;28;98526;-76
2022/11/04 03:24:18;;;;;;;2.08;0.70;;;12.50;99.90;;;;;;5006478;28;102581;-76
2022/11/04 03:27:08;;;;;;;1.77;0.70;;;12.50;99.90;;;;;;4991293;28;99214;-76
2022/11/04 03:30:07;;;;;;;1.13;0.80;;;12.50;99.90;;;;;;4992188;28;98568;-76
2022/11/04 03:32:40;;;;;;;2.47;0.80;;;12.50;99.90;;;;;;4992102;28;98507;-76
2022/11/04 03:35:08;;;;;;;1.10;1.05;;;12.40;99.90;;;;;;4991619;28;99223;-76
2022/11/04 03:37:35;;;;;;;1.73;1.20;;;12.40;99.90;;;;;;4994243;28;98910;-76
2022/11/04 03:40:03;;;;;;;2.20;0.93;;;12.40;99.90;;;;;;5010088;28;103633;-76
2022/11/04 03:42:33;;;;;;;1.83;1.20;;;12.30;99.90;;;;;;5009496;28;98678;-76
2022/11/04 03:45:00;;;;;;;1.45;0.80;;;12.30;99.90;;;;;;4995080;28;99722;-76
2022/11/04 03:47:29;;;;;;;2.28;1.10;;;12.30;99.90;;;;;;5010125;28;99292;-77
2022/11/04 03:50:12;;;;;;;2.28;1.15;;;12.30;99.90;;;;;;5010380;28;98609;-77
2022/11/04 03:52:39;;;;;;;1.85;1.40;;;12.30;99.90;;;;;;5009989;28;99322;-77
2022/11/04 03:55:08;;;;;;;3.60;2.00;;;12.30;99.90;;;;;;4994499;28;99398;-77
2022/11/04 03:58:09;;;;;;;1.92;1.45;;;12.30;99.90;;;;;;4994606;28;99126;-77
2022/11/04 04:00:50;;;;;;;2.22;1.45;;;12.30;99.90;;;;;;4985280;28;98654;-77
2022/11/04 04:03:29;;;;;;;2.65;1.42;;;12.30;99.90;;;;;;4994646;28;98586;-77
2022/11/04 04:06:07;;;;;;;2.10;1.30;;;12.30;99.90;;;;;;5009856;28;102220;-77
2022/11/04 04:08:36;;;;;;;1.95;1.42;;;12.20;99.90;;;;;;4994274;28;99141;-77
2022/11/04 04:11:09;;;;;;;2.65;1.48;;;12.20;99.90;;;;;;5010349;28;97819;-77
2022/11/04 04:13:42;;;;;;;3.00;1.48;;;12.20;99.90;;;;;;5009839;28;98686;-76
2022/11/04 04:16:15;;;;;;;2.05;1.83;;;12.20;99.90;;;;;;4994456;28;99473;-77
2022/11/04 04:18:50;;;;;;;1.75;1.35;;;12.20;99.90;;;;;;4992537;28;101516;-76
2022/11/04 04:21:25;;;;;;;1.77;0.85;;;12.20;99.90;;;;;;5009654;28;98432;-79
2022/11/04 04:29:28;;;;;;;0.88;0.63;;;12.10;99.90;;;;;;4993972;28;99165;-76
2022/11/04 04:31:59;;;;;;;0.80;0.50;;;12.00;99.90;;;;;;5009627;28;98668;-76
2022/11/04 04:34:31;;;;;;;0.85;0.40;;;12.00;99.90;;;;;;5009595;28;99044;-76
2022/11/04 04:37:15;;;;;;;0.88;0.60;;;12.00;99.90;;;;;;4994416;28;98476;-76
2022/11/04 04:45:31;;;;;;;1.20;0.50;;;11.90;99.90;;;;;;5008931;28;99241;-76
2022/11/04 04:47:58;;;;;;;1.40;0.50;;;11.90;99.90;;;;;;4993760;28;99477;-76
2022/11/04 04:50:30;;;;;;;1.25;0.60;;;11.80;99.90;;;;;;4993527;28;98940;-76
2022/11/04 04:52:58;;;;;;;0.40;0.40;;;11.90;99.90;;;;;;4994337;28;99190;-76
2022/11/04 04:55:25;;;;;;;1.20;0.50;;;11.90;99.90;;;;;;5008780;28;98569;-76
2022/11/04 04:57:52;;;;;;;0.57;0.47;;;11.80;99.90;;;;;;4993700;28;99407;-76
2022/11/04 05:00:20;;;;;;;0.30;0.30;;;11.80;99.90;;;;;;5008531;28;101815;-77
2022/11/04 05:02:48;;;;;;;0.65;0.60;;;11.90;99.90;;;;;;5009660;28;97790;-76
2022/11/04 05:05:15;;;;;;;0.70;0.40;;;11.90;99.90;;;;;;4993955;28;98446;-76
2022/11/04 05:07:42;;;;;;;0.35;0.32;;;11.90;99.90;;;;;;4993060;28;108574;-76
2022/11/04 05:10:12;;;;;;;2.22;0.43;;;11.90;99.90;;;;;;4993143;28;100193;-76
2022/11/04 05:15:26;;;;;;;1.35;0.40;;;11.90;99.90;;;;;;4993782;28;98500;-76
2022/11/04 05:17:55;;;;;;;0.50;0.50;;;11.90;99.90;;;;;;4991856;28;102454;-76
2022/11/04 05:20:22;;;;;;;0.40;0.40;;;11.80;99.90;;;;;;5007827;28;99055;-76
2022/11/04 05:22:49;;;;;;;0.75;0.40;;;11.90;99.90;;;;;;5009163;28;98526;-76
2022/11/04 05:25:17;;;;;;;0.40;0.40;;;11.90;99.90;;;;;;5008905;28;99109;-76
2022/11/04 05:27:43;;;;;;;2.08;0.60;;;11.80;99.90;;;;;;4991845;28;100961;-76
2022/11/04 05:30:11;;;;;;;0.80;0.43;;;11.80;99.90;;;;;;4993103;28;98586;-76
2022/11/04 05:32:38;;;;;;;1.05;0.40;;;11.70;99.90;;;;;;4993227;28;99436;-76
2022/11/04 05:35:05;;;;;;;1.95;0.50;;;11.70;99.90;;;;;;5008283;28;99249;-76
2022/11/04 05:37:32;;;;;;;0.47;0.30;;;11.70;99.90;;;;;;4992797;28;99305;-76
2022/11/04 05:39:59;;;;;;;0.45;0.45;;;11.70;99.90;;;;;;4991240;28;112139;-76
2022/11/04 05:42:26;;;;;;;0.40;0.40;;;11.60;99.90;;;;;;5007702;28;98630;-76
2022/11/04 05:44:53;;;;;;;1.63;0.40;;;11.60;99.90;;;;;;4993467;28;98638;-76
2022/11/04 05:47:19;;;;;;;1.25;0.50;;;11.60;99.90;;;;;;4991394;28;102011;-76
2022/11/04 05:49:46;;;;;;;1.45;0.50;;;11.50;99.90;;;;;;5007759;28;99019;-76
2022/11/04 05:52:13;;;;;;;1.73;0.60;;;11.40;99.90;;;;;;5008852;28;97835;-76
2022/11/04 05:54:40;;;;;;;1.50;0.70;;;11.40;99.90;;;;;;5008448;28;99055;-76
2022/11/04 05:57:08;;;;;;;2.22;0.60;;;11.30;99.90;;;;;;5007996;28;100445;-76
2022/11/04 05:59:35;;;;;;;1.52;0.70;;;11.20;99.90;;;;;;4990256;28;99296;-76
2022/11/04 06:02:02;;;;;;;0.88;0.50;;;11.20;99.90;;;;;;5007979;28;98553;-76
2022/11/04 06:04:29;;;;;;;2.65;0.70;;;11.10;99.90;;;;;;4991287;28;99230;-76
2022/11/04 06:06:56;;;;;;;0.80;0.50;;;11.00;99.90;;;;;;4992675;28;99214;-76
2022/11/04 06:09:37;;;;;;;0.85;0.63;;;11.00;99.90;;;;;;5007648;28;100320;-76
2022/11/04 06:12:10;;;;;;;1.35;0.63;;;10.90;99.90;;;;;;4993055;28;98536;-75
2022/11/04 06:14:37;;;;;;;0.95;0.60;;;10.90;99.90;;;;;;5007935;28;98477;-76
2022/11/04 06:17:04;;;;;;;1.92;0.80;;;10.80;99.90;;;;;;5007731;28;109835;-76
2022/11/04 06:19:31;;;;;;;1.80;0.73;;;10.80;99.90;;;;;;4992206;28;98626;-76
2022/11/04 06:21:59;;;;;;;1.90;0.70;;;10.70;99.90;;;;;;4991327;28;98600;-76
2022/11/04 06:24:26;;;;;;;0.90;0.60;;;10.70;99.90;;;;;;5007490;28;99269;-76
2022/11/04 06:26:53;;;;;;;1.65;0.65;;;10.60;99.90;;;;;;5007506;28;99400;-75
2022/11/04 06:29:19;;;;;;;0.80;0.63;;;10.60;99.90;;;;;;5007333;28;100383;-76
2022/11/04 06:31:46;;;;;;;1.75;0.60;;;10.50;99.90;;;;;;4992438;28;98503;-76
2022/11/04 06:34:13;;;;;;;3.30;0.70;;;10.50;99.90;;;;;;5007926;28;99164;-76
2022/11/04 06:36:40;;;;;;;1.95;0.60;;;10.50;99.90;;;;;;5007328;28;99703;-76
2022/11/04 06:39:07;;;;;;;2.42;0.82;;;10.50;99.90;;;;;;4991610;28;112351;-76
2022/11/04 06:41:34;;;;;;;2.65;0.75;;;10.50;99.90;;;;;;4992435;28;97801;-76
2022/11/04 06:44:01;;;;;;;2.65;0.88;;;10.50;99.90;;;;;;4992431;28;99002;-76
2022/11/04 06:46:36;;;;;;;3.97;0.93;;;10.50;99.90;;;;;;4992215;28;99382;-76
2022/11/04 06:49:04;;;;;;;1.95;0.90;;;10.50;99.90;;;;;;5007079;28;101570;-76
2022/11/04 06:51:32;;;;;;;0.60;0.60;;;10.50;99.90;;;;;;5007577;28;98525;-76
2022/11/04 06:53:59;;;;;;;4.22;1.10;;;10.50;99.90;;;;;;5007708;28;98635;-75
2022/11/04 06:56:26;;;;;;;18.25;1.70;;;10.50;99.90;;;;;;4992037;28;98489;-76
2022/11/04 06:58:54;;;;;;;2.25;0.80;;;10.50;99.90;;;;;;5006883;28;101621;-76
2022/11/04 07:01:24;;;;;;;2.72;0.93;;;10.50;99.90;;;;;;4992350;28;98438;-76
2022/11/04 07:03:54;;;;;;;2.60;1.20;;;10.50;99.90;;;;;;4990563;28;98560;-76
2022/11/04 07:06:22;;;;;;;1.98;0.70;;;10.50;99.90;;;;;;4991809;28;109356;-76
2022/11/04 07:08:50;;;;;;;2.88;1.45;;;10.50;99.90;;;;;;5006745;28;99031;-76
2022/11/04 07:11:20;;;;;;;2.25;1.30;;;10.50;99.90;;;;;;4993288;28;98659;-76
2022/11/04 07:13:48;;;;;;;2.05;1.38;;;10.50;99.90;;;;;;4994973;28;99221;-76
2022/11/04 07:16:15;;;;;;;2.45;1.40;;;10.50;99.90;;;;;;5010440;28;102117;-76
2022/11/04 07:18:42;;;;;;;1.95;1.10;;;10.50;99.90;;;;;;5010198;28;102318;-76
2022/11/04 07:21:11;;;;;;;4.80;1.23;;;10.60;99.90;;;;;;4995448;28;98502;-73
2022/11/04 07:23:38;;;;;;;3.10;1.20;;;10.60;99.90;;;;;;5010576;28;98578;-75
2022/11/04 07:26:08;;;;;;;1.15;0.90;;;10.70;99.90;;;;;;5010383;28;99343;-72
2022/11/04 07:28:35;;;;;;;3.17;1.40;;;10.70;99.90;;;;;;5010161;28;101847;-72
2022/11/04 07:31:05;;;;;;;2.67;1.38;;;10.80;99.90;;;;;;4995460;28;97799;-73
2022/11/04 07:33:32;;;;;;;1.40;1.30;;;10.90;99.90;;;;;;5010490;28;98898;-72
2022/11/04 07:36:05;;;;;;;3.00;1.50;;;11.00;99.90;;;;;;4994748;28;99249;-72
2022/11/04 07:38:32;;;;;;;1.77;1.67;;;11.00;99.90;;;;;;5009775;28;101454;-72
2022/11/04 07:40:59;;;;;;;8.90;8.43;;;11.10;99.90;;;;;;5010332;28;98979;-72
2022/11/04 07:43:26;;;;;;;1999.90;999.90;;;11.20;99.90;;;;;;5009418;28;98521;-73
2022/11/04 07:46:09;;;;;;;3.28;3.08;;;11.30;99.90;;;;;;4991919;28;101840;-72
2022/11/04 07:48:36;;;;;;;2.72;1.40;;;11.50;99.90;;;;;;5009810;28;103072;-72
2022/11/04 07:51:05;;;;;;;3.03;1.60;;;11.70;99.90;;;;;;4994886;28;98405;-72
2022/11/04 07:53:32;;;;;;;2.85;1.58;;;11.80;99.90;;;;;;4994665;28;98526;-73
2022/11/04 07:56:03;;;;;;;2.83;1.40;;;11.90;99.90;;;;;;5009288;28;122545;-72
2022/11/04 07:58:30;;;;;;;1.95;1.15;;;11.90;99.90;;;;;;4994783;28;98507;-72
2022/11/04 08:01:02;;;;;;;2.03;1.25;;;11.80;99.90;;;;;;5009829;28;98642;-73
2022/11/04 08:03:29;;;;;;;4.22;1.35;;;11.80;99.90;;;;;;5009888;28;99321;-72
2022/11/04 08:05:57;;;;;;;2.13;1.40;;;11.70;99.90;;;;;;5009488;28;99253;-72
2022/11/04 08:08:25;;;;;;;1.83;1.15;;;11.70;99.90;;;;;;5009451;28;101734;-72
2022/11/04 08:10:55;;;;;;;2.63;1.40;;;11.70;99.90;;;;;;4994317;28;98445;-72
2022/11/04 08:13:22;;;;;;;3.35;1.30;;;11.70;99.90;;;;;;5009629;28;98687;-72
2022/11/04 08:15:49;;;;;;;3.58;1.30;;;11.60;99.90;;;;;;5009523;28;99366;-72
2022/11/04 08:18:16;;;;;;;4.05;1.63;;;11.60;99.90;;;;;;5009705;28;98934;-73
2022/11/04 08:20:50;;;;;;;2.08;1.10;;;11.60;99.90;;;;;;5010266;28;97866;-72
2022/11/04 08:23:18;;;;;;;2.72;1.20;;;11.60;99.90;;;;;;4994102;28;98524;-72
2022/11/04 08:25:45;;;;;;;3.67;1.50;;;11.60;99.90;;;;;;5008650;28;114752;-72
2022/11/04 08:28:16;;;;;;;2.85;1.35;;;11.50;99.90;;;;;;4993773;28;99216;-72
2022/11/04 08:31:03;;;;;;;2.75;1.50;;;11.60;99.90;;;;;;4994698;28;98432;-72
2022/11/04 08:33:31;;;;;;;1.48;1.23;;;11.60;99.90;;;;;;5009090;28;99062;-72
2022/11/04 08:36:03;;;;;;;2.65;1.38;;;11.60;99.90;;;;;;4993683;28;99348;-72
2022/11/04 08:38:30;;;;;;;2.92;1.48;;;11.60;99.90;;;;;;5009226;28;101917;-73
2022/11/04 08:40:58;;;;;;;1.98;1.70;;;11.60;99.90;;;;;;4994127;28;99294;-73
2022/11/04 08:43:26;;;;;;;2.60;1.23;;;11.60;99.90;;;;;;5008904;28;98423;-72
2022/11/04 08:45:53;;;;;;;2.30;1.60;;;11.70;99.90;;;;;;5009431;28;98553;-72
2022/11/04 08:48:21;;;;;;;2.20;1.70;;;11.70;99.90;;;;;;5009106;28;98602;-72
2022/11/04 08:50:50;;;;;;;1.40;1.00;;;11.70;99.90;;;;;;4993871;28;98558;-72
2022/11/04 08:53:17;;;;;;;3.05;1.40;;;11.80;99.90;;;;;;5008842;28;99219;-72
2022/11/04 08:55:44;;;;;;;1.63;1.35;;;11.80;99.90;;;;;;5009061;28;99288;-73
2022/11/04 08:58:12;;;;;;;2.90;1.58;;;11.90;99.90;;;;;;5008598;28;101694;-72
2022/11/04 09:00:39;;;;;;;2.38;1.35;;;11.90;99.90;;;;;;4994130;28;98608;-72
2022/11/04 09:03:07;;;;;;;2.50;1.30;;;12.00;99.90;;;;;;5009176;28;98575;-72
2022/11/04 09:05:43;;;;;;;2.35;1.40;;;12.00;99.90;;;;;;4993451;28;99415;-72
2022/11/04 09:08:15;;;;;;;2.65;1.30;;;12.10;99.90;;;;;;4993421;28;99096;-72
2022/11/04 09:10:44;;;;;;;2.40;1.40;;;12.20;99.90;;;;;;4992799;28;97818;-72
2022/11/04 09:13:12;;;;;;;3.60;1.30;;;12.20;99.90;;;;;;5008299;28;98933;-75
2022/11/04 09:15:39;;;;;;;2.03;1.50;;;12.30;99.90;;;;;;4993309;28;99277;-73
2022/11/04 09:18:06;;;;;;;2.22;1.67;;;12.30;99.90;;;;;;5008104;28;99215;-73
2022/11/04 09:20:37;;;;;;;2.15;1.27;;;12.40;99.90;;;;;;5009061;28;98559;-73
2022/11/04 09:23:05;;;;;;;3.28;1.38;;;12.40;99.90;;;;;;5008909;28;98569;-72
2022/11/04 09:25:33;;;;;;;2.97;1.27;;;12.50;99.90;;;;;;4993091;28;99243;-72
2022/11/04 09:28:01;;;;;;;2.55;1.30;;;12.60;99.90;;;;;;5008253;28;101479;-73
2022/11/04 09:30:27;;;;;;;2.53;1.13;;;12.70;99.90;;;;;;5008668;28;99056;-73
2022/11/04 09:32:54;;;;;;;2.80;1.30;;;12.70;99.90;;;;;;5008415;28;98581;-72
2022/11/04 09:35:21;;;;;;;1.52;1.15;;;12.80;99.90;;;;;;4991208;28;101082;-72
2022/11/04 09:37:49;;;;;;;2.97;1.15;;;12.80;99.90;;;;;;5007785;28;114254;-73
2022/11/04 09:40:20;;;;;;;2.40;1.30;;;12.90;99.90;;;;;;5008414;28;98559;-72
2022/11/04 09:42:52;;;;;;;1.70;1.27;;;12.90;99.90;;;;;;5007785;28;99334;-73
2022/11/04 09:45:25;;;;;;;4.90;1.50;;;13.00;99.90;;;;;;4992707;28;99378;-72
2022/11/04 09:48:06;;;;;;;2.42;1.40;;;13.00;99.90;;;;;;5008099;28;101910;-72
2022/11/04 09:50:45;;;;;;;3.42;1.70;;;13.00;99.90;;;;;;5008851;28;98542;-73
2022/11/04 09:53:27;;;;;;;2.10;1.20;;;13.10;99.90;;;;;;5008089;28;98598;-73
2022/11/04 09:55:59;;;;;;;2.28;1.50;;;13.20;99.90;;;;;;5007961;28;102268;-72
2022/11/04 09:58:28;;;;;;;3.45;1.75;;;13.20;99.90;;;;;;5008442;28;98934;-72
2022/11/04 10:01:17;;;;;;;3.25;2.10;;;13.30;99.90;;;;;;5008621;28;97827;-73
2022/11/04 10:03:56;;;;;;;2.55;1.77;;;13.30;99.90;;;;;;5008015;28;98558;-73
2022/11/04 10:06:29;;;;;;;2.15;1.95;;;13.40;99.90;;;;;;5007603;28;102193;-73
2022/11/04 10:09:16;;;;;;;2.20;2.10;;;13.40;99.90;;;;;;5007335;28;102116;-72
2022/11/04 10:11:55;;;;;;;3.40;2.17;;;13.50;99.90;;;;;;4993145;28;98419;-73
2022/11/04 10:14:36;;;;;;;2.40;2.20;;;13.60;99.90;;;;;;4992628;28;98536;-73
2022/11/04 10:17:08;;;;;;;3.38;2.88;;;13.60;99.90;;;;;;5007501;28;100583;-73
2022/11/04 10:19:53;;;;;;;4.18;2.33;;;13.60;99.90;;;;;;4992459;28;98891;-73
2022/11/04 10:22:27;;;;;;;2.97;2.65;;;13.70;99.90;;;;;;4992733;28;98506;-72
2022/11/04 10:25:10;;;;;;;3.20;2.30;;;13.70;99.90;;;;;;4992976;28;98472;-73
2022/11/04 10:27:40;;;;;;;3.47;2.28;;;13.80;99.90;;;;;;4992934;28;98886;-72
2022/11/04 10:30:20;;;;;;;3.17;2.38;;;13.80;99.90;;;;;;4991947;28;98490;-73
2022/11/04 10:33:23;;;;;;;3.83;2.60;;;13.80;99.90;;;;;;4992855;28;99113;-72
2022/11/04 10:35:58;;;;;;;4.78;2.70;;;13.80;99.90;;;;;;4992659;28;99451;-73
2022/11/04 10:38:55;;;;;;;3.90;2.45;;;13.70;99.90;;;;;;5007287;28;102048;-73
2022/11/04 10:41:36;;;;;;;6.20;3.35;;;13.80;99.90;;;;;;4991953;28;98955;-73
2022/11/04 10:44:25;;;;;;;4.57;3.67;;;13.80;99.90;;;;;;5007543;28;98747;-73
2022/11/04 10:46:59;;;;;;;4.40;3.15;;;13.80;99.90;;;;;;4996039;28;98510;-73
2022/11/04 10:49:54;;;;;;;5.18;3.30;;;13.80;99.90;;;;;;5010817;28;101769;-73
2022/11/04 10:52:41;;;;;;;5.63;3.72;;;13.80;99.90;;;;;;4994058;28;101547;-73
2022/11/04 10:55:38;;;;;;;5.72;3.45;;;13.70;99.90;;;;;;5011546;28;98451;-72
2022/11/04 10:58:16;;;;;;;6.85;3.75;;;13.90;99.90;;;;;;4993846;28;98521;-73
2022/11/04 11:00:43;;;;;;;4.05;3.58;;;13.90;99.90;;;;;;5010740;28;103461;-72
2022/11/04 11:03:32;;;;;;;5.15;3.80;;;13.90;99.90;;;;;;5009990;28;101748;-73
2022/11/04 11:06:28;;;;;;;4.53;3.40;;;14.10;99.90;;;;;;4995955;28;98479;-73
2022/11/04 11:09:24;;;;;;;5.03;3.35;;;14.20;99.90;;;;;;4995778;28;98529;-72
2022/11/04 11:11:52;;;;;;;6.28;3.78;;;14.20;99.90;;;;;;4995506;28;99523;-72
2022/11/04 11:14:32;;;;;;;5.18;3.72;;;14.30;99.90;;;;;;5010529;28;99421;-73
2022/11/04 11:17:15;;;;;;;7.80;4.13;;;14.50;99.90;;;;;;5011133;28;98501;-73
2022/11/04 11:20:16;;;;;;;6.05;4.20;;;14.60;99.90;;;;;;5010825;28;98650;-73
2022/11/04 11:22:45;;;;;;;4.90;4.47;;;14.60;99.90;;;;;;5010515;28;101035;-73
2022/11/04 11:25:24;;;;;;;6.18;4.28;;;14.50;99.90;;;;;;4994793;28;99028;-73
2022/11/04 11:27:56;;;;;;;7.95;4.82;;;14.50;99.90;;;;;;5010771;28;98586;-73
2022/11/04 11:30:33;;;;;;;6.13;4.97;;;14.40;99.90;;;;;;4994631;28;99234;-73
2022/11/04 11:33:06;;;;;;;6.78;4.75;;;14.40;99.90;;;;;;5010425;28;99836;-73
2022/11/04 11:35:41;;;;;;;4.68;3.72;;;14.50;99.90;;;;;;4994905;28;99000;-73
2022/11/04 11:38:18;;;;;;;3.47;2.88;;;14.50;99.90;;;;;;5010638;28;98647;-73
2022/11/04 11:40:47;;;;;;;4.45;3.38;;;14.60;99.90;;;;;;4995394;28;98488;-73
2022/11/04 11:43:37;;;;;;;5.15;2.78;;;14.60;99.90;;;;;;5006640;28;102454;-73
2022/11/04 11:46:05;;;;;;;4.95;2.80;;;14.60;99.90;;;;;;5009943;28;104976;-73
2022/11/04 11:48:43;;;;;;;5.25;3.38;;;14.60;99.90;;;;;;5010738;28;97749;-73
2022/11/04 11:51:13;;;;;;;3.53;2.90;;;14.70;99.90;;;;;;4994936;28;98475;-72
2022/11/04 11:54:00;;;;;;;5.38;3.05;;;14.60;99.90;;;;;;4994808;28;99386;-75
2022/11/04 11:56:37;;;;;;;3.60;3.08;;;14.60;99.90;;;;;;4993416;28;99705;-75
2022/11/04 11:59:52;;;;;;;3.63;3.08;;;14.60;99.90;;;;;;5010018;28;98479;-73
2022/11/04 12:02:58;;;;;;;5.43;3.08;;;14.70;99.90;;;;;;4994504;28;98918;-73
2022/11/04 12:06:02;;;;;;;7.68;2.70;;;14.80;99.90;;;;;;5009491;28;102118;-73
2022/11/04 12:09:03;;;;;;;5.38;3.00;;;14.80;99.90;;;;;;5009596;28;101697;-73
2022/11/04 12:12:07;;;;;;;2.47;2.00;;;14.70;99.90;;;;;;4994940;28;98644;-73
2022/11/04 12:15:05;;;;;;;3.78;2.40;;;14.80;99.90;;;;;;5009889;28;98673;-72
2022/11/04 12:18:04;;;;;;;4.72;2.33;;;14.90;99.90;;;;;;4994775;28;98547;-72
2022/11/04 12:21:00;;;;;;;3.17;1.88;;;15.00;99.90;;;;;;4994257;28;98517;-73
2022/11/04 12:23:26;;;;;;;4.80;3.63;;;14.90;99.90;;;;;;4984219;28;100126;-73
2022/11/04 12:26:00;;;;;;;5.20;2.33;;;15.00;99.90;;;;;;4994249;28;99555;-76
2022/11/04 12:28:36;;;;;;;5.30;2.17;;;15.10;99.90;;;;;;4994410;28;99524;-72
2022/11/04 12:31:16;;;;;;;5.82;2.10;;;15.20;99.90;;;;;;5009787;28;99038;-72
2022/11/04 12:34:24;;;;;;;3.42;2.15;;;15.30;99.90;;;;;;4994308;28;98932;-73
2022/11/04 12:37:07;;;;;;;4.70;2.05;;;15.50;99.90;;;;;;4994431;28;98576;-72
2022/11/04 12:39:45;;;;;;;6.07;2.50;;;15.50;99.90;;;;;;4993780;28;99464;-72
2022/11/04 12:42:33;;;;;;;2.35;1.70;;;15.50;99.90;;;;;;4993546;28;99435;-73
2022/11/04 12:45:06;;;;;;;7.93;2.08;;;15.50;99.90;;;;;;4994726;28;97780;-73
2022/11/04 12:47:39;;;;;;;5.25;1.98;;;15.40;99.90;;;;;;4994266;28;99125;-72
2022/11/04 12:50:28;;;;;;;4.63;1.52;;;15.30;99.90;;;;;;5009254;28;99378;-73
2022/11/04 12:53:04;;;;;;;4.22;1.35;;;15.20;99.90;;;;;;5008792;28;99376;-72
2022/11/04 12:55:48;;;;;;;3.10;1.33;;;15.10;99.90;;;;;;5009534;28;98603;-72
2022/11/04 12:58:31;;;;;;;5.35;1.30;;;15.10;99.90;;;;;;5009582;28;98564;-72
2022/11/04 13:01:05;;;;;;;2.92;1.33;;;15.00;99.90;;;;;;4993673;28;99414;-72
2022/11/04 13:03:44;;;;;;;2.50;1.10;;;15.00;99.90;;;;;;4993656;28;99046;-72
2022/11/04 13:06:29;;;;;;;4.17;1.43;;;15.00;99.90;;;;;;5009460;28;98596;-72
2022/11/04 13:09:13;;;;;;;4.15;0.90;;;15.10;99.90;;;;;;4993909;28;98498;-72
2022/11/04 13:11:54;;;;;;;3.83;1.00;;;15.00;99.90;;;;;;4993852;28;98684;-72
2022/11/04 13:14:31;;;;;;;3.47;1.20;;;15.00;99.90;;;;;;4992129;28;100783;-72
2022/11/04 13:17:08;;;;;;;8.15;1.25;;;14.90;99.90;;;;;;5009283;28;98573;-72
2022/11/04 13:19:49;;;;;;;2.30;1.00;;;14.80;99.90;;;;;;5008111;28;99389;-72
2022/11/04 13:22:21;;;;;;;2.35;1.10;;;14.70;99.90;;;;;;5008510;28;101859;-73
2022/11/04 13:24:59;;;;;;;5.78;1.23;;;14.50;99.90;;;;;;4993201;28;99098;-72
2022/11/04 13:27:32;;;;;;;1.92;0.85;;;14.40;99.90;;;;;;4993744;28;98480;-72
2022/11/04 13:30:28;;;;;;;2.88;0.98;;;14.20;99.90;;;;;;4993373;28;98507;-72
2022/11/04 13:33:07;;;;;;;3.50;0.90;;;14.10;99.90;;;;;;4982634;28;99469;-73
2022/11/04 13:35:54;;;;;;;1.70;0.90;;;14.00;99.90;;;;;;5008024;28;101488;-72
2022/11/04 13:38:31;;;;;;;0.85;0.70;;;13.90;99.90;;;;;;5009085;28;97833;-72
2022/11/04 13:41:21;;;;;;;3.67;1.10;;;14.00;99.90;;;;;;4993704;28;98436;-72
2022/11/04 13:43:55;;;;;;;1.45;0.95;;;14.10;99.90;;;;;;5007734;28;101916;-72
2022/11/04 13:46:29;;;;;;;2.13;0.80;;;14.10;99.90;;;;;;5007865;28;101761;-72